sensor_id;sensor_type;location;lat;lon;timestamp;P1;durP1;ratioP1;P2;durP2;ratioP2
40076;SDS011;25777;47.824;18.982;2023-03-31T00:03:23;6.90;;;4.50;;
40076;SDS011;25777;47.824;18.982;2023-03-31T00:05:59;3.40;;;2.97;;
40076;SDS011;25777;47.824;18.982;2023-03-31T00:08:28;5.13;;;3.40;;
40076;SDS011;25777;47.824;18.982;2023-03-31T00:11:01;3.23;;;2.17;;
40076;SDS011;25777;47.824;18.982;2023-03-31T00:13:29;2.57;;;2.20;;
40076;SDS011;25777;47.824;18.982;2023-03-31T00:15:59;1.77;;;1.57;;
40076;SDS011;25777;47.824;18.982;2023-03-31T00:18:31;2.20;;;1.70;;
40076;SDS011;25777;47.824;18.982;2023-03-31T00:21:08;3.33;;;2.73;;
40076;SDS011;25777;47.824;18.982;2023-03-31T00:23:43;2.60;;;1.77;;
40076;SDS011;25777;47.824;18.982;2023-03-31T00:26:14;5.10;;;3.53;;
40076;SDS011;25777;47.824;18.982;2023-03-31T00:28:40;2.87;;;2.13;;
40076;SDS011;25777;47.824;18.982;2023-03-31T00:31:07;2.57;;;1.50;;
40076;SDS011;25777;47.824;18.982;2023-03-31T00:33:33;1.40;;;1.30;;
40076;SDS011;25777;47.824;18.982;2023-03-31T00:35:59;1.30;;;1.20;;
40076;SDS011;25777;47.824;18.982;2023-03-31T00:38:28;1.07;;;1.07;;
40076;SDS011;25777;47.824;18.982;2023-03-31T00:40:55;0.63;;;0.20;;
40076;SDS011;25777;47.824;18.982;2023-03-31T00:43:26;3.47;;;2.40;;
40076;SDS011;25777;47.824;18.982;2023-03-31T00:46:14;2.13;;;1.93;;
40076;SDS011;25777;47.824;18.982;2023-03-31T00:48:48;1.90;;;1.70;;
40076;SDS011;25777;47.824;18.982;2023-03-31T00:51:16;2.33;;;1.67;;
40076;SDS011;25777;47.824;18.982;2023-03-31T00:53:46;1.57;;;0.80;;
40076;SDS011;25777;47.824;18.982;2023-03-31T00:56:19;1.23;;;1.00;;
40076;SDS011;25777;47.824;18.982;2023-03-31T00:58:47;0.90;;;0.90;;
40076;SDS011;25777;47.824;18.982;2023-03-31T01:01:16;1.00;;;0.97;;
40076;SDS011;25777;47.824;18.982;2023-03-31T01:03:55;1.60;;;1.23;;
40076;SDS011;25777;47.824;18.982;2023-03-31T01:06:24;1.53;;;1.27;;
40076;SDS011;25777;47.824;18.982;2023-03-31T01:08:55;0.90;;;0.90;;
40076;SDS011;25777;47.824;18.982;2023-03-31T01:11:22;1.63;;;1.50;;
40076;SDS011;25777;47.824;18.982;2023-03-31T01:13:52;1.00;;;1.00;;
40076;SDS011;25777;47.824;18.982;2023-03-31T01:16:20;0.63;;;0.63;;
40076;SDS011;25777;47.824;18.982;2023-03-31T01:18:47;1.87;;;1.77;;
40076;SDS011;25777;47.824;18.982;2023-03-31T01:21:32;1.10;;;0.90;;
40076;SDS011;25777;47.824;18.982;2023-03-31T01:27:23;2.57;;;1.93;;
40076;SDS011;25777;47.824;18.982;2023-03-31T01:41:44;0.33;;;0.33;;
40076;SDS011;25777;47.824;18.982;2023-03-31T01:49:45;3.33;;;0.73;;
40076;SDS011;25777;47.824;18.982;2023-03-31T01:55:36;0.57;;;0.57;;
40076;SDS011;25777;47.824;18.982;2023-03-31T01:58:11;1.23;;;1.13;;
40076;SDS011;25777;47.824;18.982;2023-03-31T02:00:44;0.63;;;0.63;;
40076;SDS011;25777;47.824;18.982;2023-03-31T02:03:25;0.93;;;0.43;;
40076;SDS011;25777;47.824;18.982;2023-03-31T02:06:07;0.90;;;0.90;;
40076;SDS011;25777;47.824;18.982;2023-03-31T02:11:22;1.10;;;0.50;;
40076;SDS011;25777;47.824;18.982;2023-03-31T02:13:50;1.10;;;1.00;;
40076;SDS011;25777;47.824;18.982;2023-03-31T02:16:26;0.70;;;0.70;;
40076;SDS011;25777;47.824;18.982;2023-03-31T02:18:57;2.30;;;1.90;;
40076;SDS011;25777;47.824;18.982;2023-03-31T02:21:31;2.33;;;1.47;;
40076;SDS011;25777;47.824;18.982;2023-03-31T02:24:01;0.67;;;0.67;;
40076;SDS011;25777;47.824;18.982;2023-03-31T02:26:36;1.10;;;0.47;;
40076;SDS011;25777;47.824;18.982;2023-03-31T02:29:08;0.67;;;0.53;;
40076;SDS011;25777;47.824;18.982;2023-03-31T02:34:29;1.20;;;0.83;;
40076;SDS011;25777;47.824;18.982;2023-03-31T02:36:55;2.17;;;1.20;;
40076;SDS011;25777;47.824;18.982;2023-03-31T02:39:30;0.43;;;0.43;;
40076;SDS011;25777;47.824;18.982;2023-03-31T02:42:05;4.80;;;0.90;;
40076;SDS011;25777;47.824;18.982;2023-03-31T02:47:07;0.20;;;0.20;;
40076;SDS011;25777;47.824;18.982;2023-03-31T02:49:37;0.47;;;0.47;;
40076;SDS011;25777;47.824;18.982;2023-03-31T03:00:39;1.07;;;0.93;;
40076;SDS011;25777;47.824;18.982;2023-03-31T03:15:10;0.63;;;0.63;;
40076;SDS011;25777;47.824;18.982;2023-03-31T03:17:47;1.75;;;0.47;;
40076;SDS011;25777;47.824;18.982;2023-03-31T03:20:15;0.40;;;0.40;;
40076;SDS011;25777;47.824;18.982;2023-03-31T03:22:44;1.13;;;0.77;;
40076;SDS011;25777;47.824;18.982;2023-03-31T03:25:11;0.40;;;0.40;;
40076;SDS011;25777;47.824;18.982;2023-03-31T03:27:41;1.23;;;1.13;;
40076;SDS011;25777;47.824;18.982;2023-03-31T03:30:13;0.87;;;0.87;;
40076;SDS011;25777;47.824;18.982;2023-03-31T03:32:40;1.50;;;1.37;;
40076;SDS011;25777;47.824;18.982;2023-03-31T03:35:06;0.50;;;0.50;;
40076;SDS011;25777;47.824;18.982;2023-03-31T03:37:33;3.03;;;0.60;;
40076;SDS011;25777;47.824;18.982;2023-03-31T03:39:59;0.00;;;0.00;;
40076;SDS011;25777;47.824;18.982;2023-03-31T03:42:26;0.50;;;0.50;;
40076;SDS011;25777;47.824;18.982;2023-03-31T03:44:53;0.43;;;0.43;;
40076;SDS011;25777;47.824;18.982;2023-03-31T03:47:19;0.90;;;0.73;;
40076;SDS011;25777;47.824;18.982;2023-03-31T03:49:47;0.43;;;0.43;;
40076;SDS011;25777;47.824;18.982;2023-03-31T03:52:14;26.13;;;1.33;;
40076;SDS011;25777;47.824;18.982;2023-03-31T03:54:42;0.20;;;0.20;;
40076;SDS011;25777;47.824;18.982;2023-03-31T03:57:08;0.70;;;0.57;;
40076;SDS011;25777;47.824;18.982;2023-03-31T03:59:36;0.30;;;0.30;;
40076;SDS011;25777;47.824;18.982;2023-03-31T04:02:03;0.47;;;0.37;;
40076;SDS011;25777;47.824;18.982;2023-03-31T04:04:30;0.10;;;0.10;;
40076;SDS011;25777;47.824;18.982;2023-03-31T04:06:57;0.83;;;0.53;;
40076;SDS011;25777;47.824;18.982;2023-03-31T04:09:24;0.57;;;0.47;;
40076;SDS011;25777;47.824;18.982;2023-03-31T04:11:50;0.23;;;0.23;;
40076;SDS011;25777;47.824;18.982;2023-03-31T04:14:17;1.57;;;0.80;;
40076;SDS011;25777;47.824;18.982;2023-03-31T04:16:42;0.20;;;0.20;;
40076;SDS011;25777;47.824;18.982;2023-03-31T04:21:41;1.10;;;1.00;;
40076;SDS011;25777;47.824;18.982;2023-03-31T04:24:12;0.03;;;0.03;;
40076;SDS011;25777;47.824;18.982;2023-03-31T04:26:45;0.23;;;0.23;;
40076;SDS011;25777;47.824;18.982;2023-03-31T04:29:15;0.40;;;0.40;;
40076;SDS011;25777;47.824;18.982;2023-03-31T04:31:41;5.10;;;0.93;;
40076;SDS011;25777;47.824;18.982;2023-03-31T04:34:12;2.23;;;0.73;;
40076;SDS011;25777;47.824;18.982;2023-03-31T04:36:39;3.50;;;0.50;;
40076;SDS011;25777;47.824;18.982;2023-03-31T04:39:11;1.27;;;1.00;;
40076;SDS011;25777;47.824;18.982;2023-03-31T04:41:38;1.80;;;1.40;;
40076;SDS011;25777;47.824;18.982;2023-03-31T04:44:04;16.23;;;1.67;;
40076;SDS011;25777;47.824;18.982;2023-03-31T04:46:31;0.43;;;0.33;;
40076;SDS011;25777;47.824;18.982;2023-03-31T04:48:58;0.87;;;0.27;;
40076;SDS011;25777;47.824;18.982;2023-03-31T04:51:30;0.40;;;0.40;;
40076;SDS011;25777;47.824;18.982;2023-03-31T04:53:59;0.37;;;0.37;;
40076;SDS011;25777;47.824;18.982;2023-03-31T04:56:25;0.17;;;0.17;;
40076;SDS011;25777;47.824;18.982;2023-03-31T04:58:52;0.63;;;0.63;;
40076;SDS011;25777;47.824;18.982;2023-03-31T05:01:19;0.70;;;0.70;;
40076;SDS011;25777;47.824;18.982;2023-03-31T05:03:50;0.37;;;0.37;;
40076;SDS011;25777;47.824;18.982;2023-03-31T05:06:16;0.47;;;0.47;;
40076;SDS011;25777;47.824;18.982;2023-03-31T05:08:44;0.50;;;0.47;;
40076;SDS011;25777;47.824;18.982;2023-03-31T05:11:11;0.40;;;0.40;;
40076;SDS011;25777;47.824;18.982;2023-03-31T05:13:37;1.00;;;0.60;;
40076;SDS011;25777;47.824;18.982;2023-03-31T05:16:07;0.87;;;0.83;;
40076;SDS011;25777;47.824;18.982;2023-03-31T05:18:35;0.37;;;0.37;;
40076;SDS011;25777;47.824;18.982;2023-03-31T05:21:15;0.00;;;0.00;;
40076;SDS011;25777;47.824;18.982;2023-03-31T05:23:48;0.13;;;0.13;;
40076;SDS011;25777;47.824;18.982;2023-03-31T05:26:15;1.98;;;0.73;;
40076;SDS011;25777;47.824;18.982;2023-03-31T05:28:41;0.30;;;0.30;;
40076;SDS011;25777;47.824;18.982;2023-03-31T05:31:07;0.23;;;0.17;;
40076;SDS011;25777;47.824;18.982;2023-03-31T05:33:35;0.20;;;0.20;;
40076;SDS011;25777;47.824;18.982;2023-03-31T05:36:06;0.30;;;0.30;;
40076;SDS011;25777;47.824;18.982;2023-03-31T05:38:35;2.63;;;0.53;;
40076;SDS011;25777;47.824;18.982;2023-03-31T05:41:01;0.20;;;0.10;;
40076;SDS011;25777;47.824;18.982;2023-03-31T05:43:28;0.70;;;0.47;;
40076;SDS011;25777;47.824;18.982;2023-03-31T05:46:00;0.77;;;0.77;;
40076;SDS011;25777;47.824;18.982;2023-03-31T05:48:27;2.80;;;1.43;;
40076;SDS011;25777;47.824;18.982;2023-03-31T05:50:57;2.07;;;1.83;;
40076;SDS011;25777;47.824;18.982;2023-03-31T05:53:24;0.97;;;0.97;;
40076;SDS011;25777;47.824;18.982;2023-03-31T05:56:00;0.97;;;0.70;;
40076;SDS011;25777;47.824;18.982;2023-03-31T05:58:30;0.57;;;0.57;;
40076;SDS011;25777;47.824;18.982;2023-03-31T06:01:11;0.20;;;0.20;;
40076;SDS011;25777;47.824;18.982;2023-03-31T06:03:43;0.00;;;0.00;;
40076;SDS011;25777;47.824;18.982;2023-03-31T06:06:10;1.13;;;0.83;;
40076;SDS011;25777;47.824;18.982;2023-03-31T06:08:42;0.37;;;0.37;;
40076;SDS011;25777;47.824;18.982;2023-03-31T06:13:45;0.10;;;0.10;;
40076;SDS011;25777;47.824;18.982;2023-03-31T06:16:14;0.40;;;0.33;;
40076;SDS011;25777;47.824;18.982;2023-03-31T06:18:43;0.50;;;0.50;;
40076;SDS011;25777;47.824;18.982;2023-03-31T06:21:11;1.27;;;0.17;;
40076;SDS011;25777;47.824;18.982;2023-03-31T06:23:40;1.43;;;1.33;;
40076;SDS011;25777;47.824;18.982;2023-03-31T06:26:10;1.00;;;0.67;;
40076;SDS011;25777;47.824;18.982;2023-03-31T06:28:39;0.10;;;0.10;;
40076;SDS011;25777;47.824;18.982;2023-03-31T06:31:06;0.70;;;0.60;;
40076;SDS011;25777;47.824;18.982;2023-03-31T06:36:05;0.30;;;0.30;;
40076;SDS011;25777;47.824;18.982;2023-03-31T06:38:32;1.33;;;0.93;;
40076;SDS011;25777;47.824;18.982;2023-03-31T06:41:01;6.20;;;3.53;;
40076;SDS011;25777;47.824;18.982;2023-03-31T06:43:33;4.07;;;2.03;;
40076;SDS011;25777;47.824;18.982;2023-03-31T06:45:59;0.57;;;0.57;;
40076;SDS011;25777;47.824;18.982;2023-03-31T06:48:25;0.60;;;0.47;;
40076;SDS011;25777;47.824;18.982;2023-03-31T06:50:53;0.20;;;0.20;;
40076;SDS011;25777;47.824;18.982;2023-03-31T06:53:20;1.10;;;1.00;;
40076;SDS011;25777;47.824;18.982;2023-03-31T06:55:46;1.07;;;0.77;;
40076;SDS011;25777;47.824;18.982;2023-03-31T06:58:12;3.60;;;2.53;;
40076;SDS011;25777;47.824;18.982;2023-03-31T07:00:38;3.90;;;0.63;;
40076;SDS011;25777;47.824;18.982;2023-03-31T07:03:05;1.20;;;0.38;;
40076;SDS011;25777;47.824;18.982;2023-03-31T07:05:34;1.63;;;0.73;;
40076;SDS011;25777;47.824;18.982;2023-03-31T07:08:01;0.90;;;0.63;;
40076;SDS011;25777;47.824;18.982;2023-03-31T07:10:29;0.08;;;0.08;;
40076;SDS011;25777;47.824;18.982;2023-03-31T07:12:57;0.65;;;0.65;;
40076;SDS011;25777;47.824;18.982;2023-03-31T07:15:24;1.30;;;1.20;;
40076;SDS011;25777;47.824;18.982;2023-03-31T07:17:58;0.68;;;0.68;;
40076;SDS011;25777;47.824;18.982;2023-03-31T07:20:27;0.73;;;0.63;;
40076;SDS011;25777;47.824;18.982;2023-03-31T07:22:54;0.65;;;0.45;;
40076;SDS011;25777;47.824;18.982;2023-03-31T07:25:22;0.28;;;0.28;;
40076;SDS011;25777;47.824;18.982;2023-03-31T07:27:52;1.05;;;0.90;;
40076;SDS011;25777;47.824;18.982;2023-03-31T07:30:19;0.90;;;0.88;;
40076;SDS011;25777;47.824;18.982;2023-03-31T07:32:47;0.63;;;0.63;;
40076;SDS011;25777;47.824;18.982;2023-03-31T07:35:15;2.13;;;0.85;;
40076;SDS011;25777;47.824;18.982;2023-03-31T07:37:42;0.88;;;0.88;;
40076;SDS011;25777;47.824;18.982;2023-03-31T07:40:21;2.55;;;0.85;;
40076;SDS011;25777;47.824;18.982;2023-03-31T07:42:49;1.90;;;1.25;;
40076;SDS011;25777;47.824;18.982;2023-03-31T07:45:18;0.63;;;0.63;;
40076;SDS011;25777;47.824;18.982;2023-03-31T07:47:45;1.20;;;1.10;;
40076;SDS011;25777;47.824;18.982;2023-03-31T07:50:14;7.25;;;1.48;;
40076;SDS011;25777;47.824;18.982;2023-03-31T07:52:41;4.03;;;1.30;;
40076;SDS011;25777;47.824;18.982;2023-03-31T07:55:09;0.70;;;0.60;;
40076;SDS011;25777;47.824;18.982;2023-03-31T07:57:35;1.08;;;0.82;;
40076;SDS011;25777;47.824;18.982;2023-03-31T08:00:06;0.20;;;0.20;;
40076;SDS011;25777;47.824;18.982;2023-03-31T08:05:02;0.43;;;0.43;;
40076;SDS011;25777;47.824;18.982;2023-03-31T08:07:37;0.93;;;0.35;;
40076;SDS011;25777;47.824;18.982;2023-03-31T08:10:06;2.00;;;0.63;;
40076;SDS011;25777;47.824;18.982;2023-03-31T08:12:35;0.20;;;0.20;;
40076;SDS011;25777;47.824;18.982;2023-03-31T08:15:02;0.52;;;0.50;;
40076;SDS011;25777;47.824;18.982;2023-03-31T08:17:29;2.35;;;0.82;;
40076;SDS011;25777;47.824;18.982;2023-03-31T08:19:55;0.75;;;0.75;;
40076;SDS011;25777;47.824;18.982;2023-03-31T08:22:22;1.02;;;0.55;;
40076;SDS011;25777;47.824;18.982;2023-03-31T08:24:48;2.38;;;0.65;;
40076;SDS011;25777;47.824;18.982;2023-03-31T08:27:14;1.52;;;1.27;;
40076;SDS011;25777;47.824;18.982;2023-03-31T08:29:41;1.23;;;0.45;;
40076;SDS011;25777;47.824;18.982;2023-03-31T08:34:48;0.22;;;0.22;;
40076;SDS011;25777;47.824;18.982;2023-03-31T08:37:16;0.65;;;0.13;;
40076;SDS011;25777;47.824;18.982;2023-03-31T08:39:42;1.38;;;1.27;;
40076;SDS011;25777;47.824;18.982;2023-03-31T08:42:44;0.22;;;0.22;;
40076;SDS011;25777;47.824;18.982;2023-03-31T08:47:57;0.20;;;0.10;;
40076;SDS011;25777;47.824;18.982;2023-03-31T08:50:31;0.47;;;0.47;;
40076;SDS011;25777;47.824;18.982;2023-03-31T08:55:52;0.05;;;0.05;;
40076;SDS011;25777;47.824;18.982;2023-03-31T09:01:15;1.75;;;0.98;;
40076;SDS011;25777;47.824;18.982;2023-03-31T09:10:19;0.43;;;0.25;;
40076;SDS011;25777;47.824;18.982;2023-03-31T09:15:58;0.77;;;0.30;;
40076;SDS011;25777;47.824;18.982;2023-03-31T09:18:40;0.22;;;0.10;;
40076;SDS011;25777;47.824;18.982;2023-03-31T09:21:12;0.20;;;0.20;;
40076;SDS011;25777;47.824;18.982;2023-03-31T09:26:39;0.47;;;0.20;;
40076;SDS011;25777;47.824;18.982;2023-03-31T09:29:13;0.10;;;0.10;;
40076;SDS011;25777;47.824;18.982;2023-03-31T09:31:45;1.20;;;0.90;;
40076;SDS011;25777;47.824;18.982;2023-03-31T09:34:16;0.98;;;0.55;;
40076;SDS011;25777;47.824;18.982;2023-03-31T09:36:57;0.93;;;0.25;;
40076;SDS011;25777;47.824;18.982;2023-03-31T09:39:24;0.60;;;0.30;;
40076;SDS011;25777;47.824;18.982;2023-03-31T09:41:52;0.60;;;0.30;;
40076;SDS011;25777;47.824;18.982;2023-03-31T09:44:33;0.13;;;0.10;;
40076;SDS011;25777;47.824;18.982;2023-03-31T09:47:02;1.17;;;0.52;;
40076;SDS011;25777;47.824;18.982;2023-03-31T09:49:33;2.30;;;0.75;;
40076;SDS011;25777;47.824;18.982;2023-03-31T09:54:54;0.30;;;0.30;;
40076;SDS011;25777;47.824;18.982;2023-03-31T09:57:25;0.30;;;0.20;;
40076;SDS011;25777;47.824;18.982;2023-03-31T10:08:23;1.13;;;0.55;;
40076;SDS011;25777;47.824;18.982;2023-03-31T10:13:50;1.80;;;0.70;;
40076;SDS011;25777;47.824;18.982;2023-03-31T10:16:34;0.85;;;0.20;;
40076;SDS011;25777;47.824;18.982;2023-03-31T10:19:28;0.10;;;0.08;;
40076;SDS011;25777;47.824;18.982;2023-03-31T10:21:57;0.20;;;0.17;;
40076;SDS011;25777;47.824;18.982;2023-03-31T10:24:41;1.02;;;0.43;;
40076;SDS011;25777;47.824;18.982;2023-03-31T10:29:53;0.10;;;0.10;;
40076;SDS011;25777;47.824;18.982;2023-03-31T10:32:25;0.22;;;0.10;;
40076;SDS011;25777;47.824;18.982;2023-03-31T10:34:58;0.20;;;0.20;;
40076;SDS011;25777;47.824;18.982;2023-03-31T10:37:44;0.22;;;0.17;;
40076;SDS011;25777;47.824;18.982;2023-03-31T10:42:44;1.17;;;0.57;;
40076;SDS011;25777;47.824;18.982;2023-03-31T10:48:05;2.25;;;0.65;;
40076;SDS011;25777;47.824;18.982;2023-03-31T10:51:03;1.17;;;0.50;;
40076;SDS011;25777;47.824;18.982;2023-03-31T10:53:45;0.75;;;0.55;;
40076;SDS011;25777;47.824;18.982;2023-03-31T10:56:24;0.00;;;0.00;;
40076;SDS011;25777;47.824;18.982;2023-03-31T11:13:24;0.93;;;0.68;;
40076;SDS011;25777;47.824;18.982;2023-03-31T11:38:57;0.35;;;0.15;;
40076;SDS011;25777;47.824;18.982;2023-03-31T11:41:53;0.28;;;0.28;;
40076;SDS011;25777;47.824;18.982;2023-03-31T11:44:23;1.88;;;0.93;;
40076;SDS011;25777;47.824;18.982;2023-03-31T11:49:38;1.48;;;0.40;;
40076;SDS011;25777;47.824;18.982;2023-03-31T11:55:17;1.17;;;0.45;;
40076;SDS011;25777;47.824;18.982;2023-03-31T12:00:43;0.08;;;0.00;;
40076;SDS011;25777;47.824;18.982;2023-03-31T12:05:45;0.20;;;0.20;;
40076;SDS011;25777;47.824;18.982;2023-03-31T12:08:16;0.15;;;0.15;;
40076;SDS011;25777;47.824;18.982;2023-03-31T12:16:36;0.30;;;0.30;;
40076;SDS011;25777;47.824;18.982;2023-03-31T12:22:09;0.98;;;0.60;;
40076;SDS011;25777;47.824;18.982;2023-03-31T12:24:45;0.20;;;0.00;;
40076;SDS011;25777;47.824;18.982;2023-03-31T12:29:59;0.00;;;0.00;;
40076;SDS011;25777;47.824;18.982;2023-03-31T12:32:49;0.20;;;0.20;;
40076;SDS011;25777;47.824;18.982;2023-03-31T12:38:12;1.00;;;0.63;;
40076;SDS011;25777;47.824;18.982;2023-03-31T13:03:52;0.47;;;0.20;;
40076;SDS011;25777;47.824;18.982;2023-03-31T13:08:59;0.15;;;0.10;;
40076;SDS011;25777;47.824;18.982;2023-03-31T13:11:37;0.52;;;0.22;;
40076;SDS011;25777;47.824;18.982;2023-03-31T13:14:22;2.10;;;0.15;;
40076;SDS011;25777;47.824;18.982;2023-03-31T13:19:49;0.03;;;0.03;;
40076;SDS011;25777;47.824;18.982;2023-03-31T13:33:18;1.13;;;0.25;;
40076;SDS011;25777;47.824;18.982;2023-03-31T14:08:12;1.05;;;0.50;;
40076;SDS011;25777;47.824;18.982;2023-03-31T14:10:50;0.20;;;0.13;;
40076;SDS011;25777;47.824;18.982;2023-03-31T14:26:09;1.17;;;0.63;;
40076;SDS011;25777;47.824;18.982;2023-03-31T14:37:29;0.40;;;0.40;;
40076;SDS011;25777;47.824;18.982;2023-03-31T14:42:56;0.10;;;0.08;;
40076;SDS011;25777;47.824;18.982;2023-03-31T14:45:30;0.65;;;0.60;;
40076;SDS011;25777;47.824;18.982;2023-03-31T14:47:57;0.77;;;0.65;;
40076;SDS011;25777;47.824;18.982;2023-03-31T14:50:34;0.77;;;0.50;;
40076;SDS011;25777;47.824;18.982;2023-03-31T14:53:01;2.90;;;0.50;;
40076;SDS011;25777;47.824;18.982;2023-03-31T14:55:31;1.20;;;0.70;;
40076;SDS011;25777;47.824;18.982;2023-03-31T14:57:59;0.45;;;0.30;;
40076;SDS011;25777;47.824;18.982;2023-03-31T15:00:30;0.73;;;0.28;;
40076;SDS011;25777;47.824;18.982;2023-03-31T15:02:59;0.40;;;0.33;;
40076;SDS011;25777;47.824;18.982;2023-03-31T15:08:06;0.55;;;0.47;;
40076;SDS011;25777;47.824;18.982;2023-03-31T15:10:39;0.47;;;0.40;;
40076;SDS011;25777;47.824;18.982;2023-03-31T15:13:44;0.30;;;0.22;;
40076;SDS011;25777;47.824;18.982;2023-03-31T15:21:58;1.25;;;0.52;;
40076;SDS011;25777;47.824;18.982;2023-03-31T15:24:41;0.60;;;0.50;;
40076;SDS011;25777;47.824;18.982;2023-03-31T15:27:11;0.75;;;0.50;;
40076;SDS011;25777;47.824;18.982;2023-03-31T15:32:25;0.95;;;0.30;;
40076;SDS011;25777;47.824;18.982;2023-03-31T15:34:56;0.10;;;0.10;;
40076;SDS011;25777;47.824;18.982;2023-03-31T15:37:41;1.65;;;0.52;;
40076;SDS011;25777;47.824;18.982;2023-03-31T15:40:19;0.47;;;0.43;;
40076;SDS011;25777;47.824;18.982;2023-03-31T15:43:26;0.10;;;0.10;;
40076;SDS011;25777;47.824;18.982;2023-03-31T15:45:59;1.40;;;0.70;;
40076;SDS011;25777;47.824;18.982;2023-03-31T15:56:56;0.43;;;0.22;;
40076;SDS011;25777;47.824;18.982;2023-03-31T15:59:58;1.17;;;0.45;;
40076;SDS011;25777;47.824;18.982;2023-03-31T16:02:33;3.78;;;0.90;;
40076;SDS011;25777;47.824;18.982;2023-03-31T16:05:33;1.35;;;1.25;;
40076;SDS011;25777;47.824;18.982;2023-03-31T16:08:04;0.75;;;0.55;;
40076;SDS011;25777;47.824;18.982;2023-03-31T16:13:07;1.45;;;1.10;;
40076;SDS011;25777;47.824;18.982;2023-03-31T16:15:48;2.55;;;1.52;;
40076;SDS011;25777;47.824;18.982;2023-03-31T16:18:23;1.00;;;0.90;;
40076;SDS011;25777;47.824;18.982;2023-03-31T16:21:07;1.00;;;0.88;;
40076;SDS011;25777;47.824;18.982;2023-03-31T16:23:36;1.00;;;0.40;;
40076;SDS011;25777;47.824;18.982;2023-03-31T16:26:06;1.58;;;0.82;;
40076;SDS011;25777;47.824;18.982;2023-03-31T16:28:34;0.50;;;0.30;;
40076;SDS011;25777;47.824;18.982;2023-03-31T16:31:01;1.38;;;0.65;;
40076;SDS011;25777;47.824;18.982;2023-03-31T16:33:51;1.13;;;1.02;;
40076;SDS011;25777;47.824;18.982;2023-03-31T16:36:20;0.70;;;0.57;;
40076;SDS011;25777;47.824;18.982;2023-03-31T16:38:54;0.50;;;0.32;;
40076;SDS011;25777;47.824;18.982;2023-03-31T16:41:22;0.88;;;0.80;;
40076;SDS011;25777;47.824;18.982;2023-03-31T16:43:49;1.25;;;0.68;;
40076;SDS011;25777;47.824;18.982;2023-03-31T16:46:16;1.83;;;0.77;;
40076;SDS011;25777;47.824;18.982;2023-03-31T16:48:47;1.00;;;0.90;;
40076;SDS011;25777;47.824;18.982;2023-03-31T16:51:15;0.47;;;0.30;;
40076;SDS011;25777;47.824;18.982;2023-03-31T16:58:45;1.40;;;0.15;;
40076;SDS011;25777;47.824;18.982;2023-03-31T17:01:11;0.65;;;0.52;;
40076;SDS011;25777;47.824;18.982;2023-03-31T17:03:38;0.38;;;0.30;;
40076;SDS011;25777;47.824;18.982;2023-03-31T17:06:06;0.57;;;0.17;;
40076;SDS011;25777;47.824;18.982;2023-03-31T17:08:38;0.00;;;0.00;;
40076;SDS011;25777;47.824;18.982;2023-03-31T17:19:21;0.03;;;0.03;;
40076;SDS011;25777;47.824;18.982;2023-03-31T17:21:47;5.88;;;0.85;;
40076;SDS011;25777;47.824;18.982;2023-03-31T17:24:14;0.70;;;0.47;;
40076;SDS011;25777;47.824;18.982;2023-03-31T17:26:42;0.28;;;0.28;;
40076;SDS011;25777;47.824;18.982;2023-03-31T17:29:09;0.50;;;0.50;;
40076;SDS011;25777;47.824;18.982;2023-03-31T17:31:35;1.15;;;0.85;;
40076;SDS011;25777;47.824;18.982;2023-03-31T17:34:01;3.20;;;2.65;;
40076;SDS011;25777;47.824;18.982;2023-03-31T17:36:27;0.88;;;0.75;;
40076;SDS011;25777;47.824;18.982;2023-03-31T17:38:55;2.88;;;0.90;;
40076;SDS011;25777;47.824;18.982;2023-03-31T17:41:31;1.00;;;0.60;;
40076;SDS011;25777;47.824;18.982;2023-03-31T17:43:58;0.60;;;0.60;;
40076;SDS011;25777;47.824;18.982;2023-03-31T17:46:25;0.90;;;0.65;;
40076;SDS011;25777;47.824;18.982;2023-03-31T17:48:53;3.33;;;0.63;;
40076;SDS011;25777;47.824;18.982;2023-03-31T17:51:22;0.93;;;0.50;;
40076;SDS011;25777;47.824;18.982;2023-03-31T17:53:49;9.73;;;3.55;;
40076;SDS011;25777;47.824;18.982;2023-03-31T17:56:17;7.68;;;6.05;;
40076;SDS011;25777;47.824;18.982;2023-03-31T17:58:43;7.95;;;5.38;;
40076;SDS011;25777;47.824;18.982;2023-03-31T18:01:25;9.90;;;7.18;;
40076;SDS011;25777;47.824;18.982;2023-03-31T18:03:53;9.23;;;4.45;;
40076;SDS011;25777;47.824;18.982;2023-03-31T18:06:22;12.05;;;1.30;;
40076;SDS011;25777;47.824;18.982;2023-03-31T18:11:44;4.45;;;3.13;;
40076;SDS011;25777;47.824;18.982;2023-03-31T18:14:11;2.42;;;2.13;;
40076;SDS011;25777;47.824;18.982;2023-03-31T18:16:39;6.93;;;4.22;;
40076;SDS011;25777;47.824;18.982;2023-03-31T18:19:06;7.63;;;3.78;;
40076;SDS011;25777;47.824;18.982;2023-03-31T18:21:35;6.18;;;3.25;;
40076;SDS011;25777;47.824;18.982;2023-03-31T18:24:04;1.42;;;1.33;;
40076;SDS011;25777;47.824;18.982;2023-03-31T18:26:32;5.82;;;2.83;;
40076;SDS011;25777;47.824;18.982;2023-03-31T18:28:59;3.70;;;1.77;;
40076;SDS011;25777;47.824;18.982;2023-03-31T18:34:04;5.60;;;2.75;;
40076;SDS011;25777;47.824;18.982;2023-03-31T18:36:30;14.30;;;8.82;;
40076;SDS011;25777;47.824;18.982;2023-03-31T18:38:57;2.45;;;1.98;;
40076;SDS011;25777;47.824;18.982;2023-03-31T18:41:24;1.05;;;1.02;;
40076;SDS011;25777;47.824;18.982;2023-03-31T18:51:19;1.10;;;0.65;;
40076;SDS011;25777;47.824;18.982;2023-03-31T18:53:48;0.35;;;0.30;;
40076;SDS011;25777;47.824;18.982;2023-03-31T18:56:14;0.20;;;0.17;;
40076;SDS011;25777;47.824;18.982;2023-03-31T18:58:40;1.85;;;1.23;;
40076;SDS011;25777;47.824;18.982;2023-03-31T19:01:20;1.48;;;1.38;;
40076;SDS011;25777;47.824;18.982;2023-03-31T19:03:46;0.52;;;0.52;;
40076;SDS011;25777;47.824;18.982;2023-03-31T19:06:15;0.22;;;0.22;;
40076;SDS011;25777;47.824;18.982;2023-03-31T19:08:42;0.45;;;0.08;;
40076;SDS011;25777;47.824;18.982;2023-03-31T19:11:12;2.83;;;1.65;;
40076;SDS011;25777;47.824;18.982;2023-03-31T19:13:41;2.80;;;0.75;;
40076;SDS011;25777;47.824;18.982;2023-03-31T19:16:08;0.57;;;0.57;;
40076;SDS011;25777;47.824;18.982;2023-03-31T19:18:37;0.35;;;0.35;;
40076;SDS011;25777;47.824;18.982;2023-03-31T19:21:03;1.23;;;1.00;;
40076;SDS011;25777;47.824;18.982;2023-03-31T19:23:29;0.55;;;0.50;;
40076;SDS011;25777;47.824;18.982;2023-03-31T19:28:27;2.33;;;1.90;;
40076;SDS011;25777;47.824;18.982;2023-03-31T19:30:54;0.20;;;0.20;;
40076;SDS011;25777;47.824;18.982;2023-03-31T19:33:22;1.33;;;1.23;;
40076;SDS011;25777;47.824;18.982;2023-03-31T19:35:55;0.60;;;0.60;;
40076;SDS011;25777;47.824;18.982;2023-03-31T19:38:21;0.25;;;0.25;;
40076;SDS011;25777;47.824;18.982;2023-03-31T19:40:55;0.03;;;0.03;;
40076;SDS011;25777;47.824;18.982;2023-03-31T19:43:23;0.38;;;0.38;;
40076;SDS011;25777;47.824;18.982;2023-03-31T19:45:51;1.83;;;1.00;;
40076;SDS011;25777;47.824;18.982;2023-03-31T19:48:18;0.10;;;0.10;;
40076;SDS011;25777;47.824;18.982;2023-03-31T19:50:48;7.28;;;2.72;;
40076;SDS011;25777;47.824;18.982;2023-03-31T19:53:17;0.80;;;0.80;;
40076;SDS011;25777;47.824;18.982;2023-03-31T19:58:21;0.00;;;0.00;;
40076;SDS011;25777;47.824;18.982;2023-03-31T20:00:54;0.10;;;0.10;;
40076;SDS011;25777;47.824;18.982;2023-03-31T20:03:27;0.40;;;0.40;;
40076;SDS011;25777;47.824;18.982;2023-03-31T20:06:06;0.10;;;0.10;;
40076;SDS011;25777;47.824;18.982;2023-03-31T20:08:34;0.13;;;0.13;;
40076;SDS011;25777;47.824;18.982;2023-03-31T20:11:02;0.53;;;0.53;;
40076;SDS011;25777;47.824;18.982;2023-03-31T20:13:29;1.17;;;0.77;;
40076;SDS011;25777;47.824;18.982;2023-03-31T20:16:09;0.10;;;0.10;;
40076;SDS011;25777;47.824;18.982;2023-03-31T20:21:12;0.10;;;0.10;;